sensor_id;sensor_type;location;lat;lon;timestamp;temperature;humidity
23723;DHT22;12042;52.136;5.584;2023-03-13T06:19:48;13.00;99.90
23723;DHT22;12042;52.136;5.584;2023-03-13T06:22:15;13.00;99.90
23723;DHT22;12042;52.136;5.584;2023-03-13T06:24:41;13.00;99.90
23723;DHT22;12042;52.136;5.584;2023-03-13T06:27:09;13.00;99.90
23723;DHT22;12042;52.136;5.584;2023-03-13T06:29:38;13.10;99.90
23723;DHT22;12042;52.136;5.584;2023-03-13T06:32:03;13.10;99.90
23723;DHT22;12042;52.136;5.584;2023-03-13T06:34:29;13.10;99.90
23723;DHT22;12042;52.136;5.584;2023-03-13T06:36:55;13.10;99.90
23723;DHT22;12042;52.136;5.584;2023-03-13T06:39:23;13.10;99.90
23723;DHT22;12042;52.136;5.584;2023-03-13T06:41:48;13.10;99.90
23723;DHT22;12042;52.136;5.584;2023-03-13T06:44:14;13.10;99.90
23723;DHT22;12042;52.136;5.584;2023-03-13T06:46:40;13.10;99.90
23723;DHT22;12042;52.136;5.584;2023-03-13T06:49:05;13.10;99.90
23723;DHT22;12042;52.136;5.584;2023-03-13T06:51:34;13.10;99.90
23723;DHT22;12042;52.136;5.584;2023-03-13T06:54:02;13.10;99.90
23723;DHT22;12042;52.136;5.584;2023-03-13T06:56:28;13.10;99.90
23723;DHT22;12042;52.136;5.584;2023-03-13T06:58:56;13.10;99.90
23723;DHT22;12042;52.136;5.584;2023-03-13T07:01:22;13.10;99.90
23723;DHT22;12042;52.136;5.584;2023-03-13T07:03:48;13.20;99.90
23723;DHT22;12042;52.136;5.584;2023-03-13T07:06:14;13.20;99.90
23723;DHT22;12042;52.136;5.584;2023-03-13T07:08:40;13.20;99.90
23723;DHT22;12042;52.136;5.584;2023-03-13T07:11:10;13.20;99.90
23723;DHT22;12042;52.136;5.584;2023-03-13T07:13:36;13.30;99.90
23723;DHT22;12042;52.136;5.584;2023-03-13T07:16:04;13.30;99.90
23723;DHT22;12042;52.136;5.584;2023-03-13T07:18:30;13.30;99.90
23723;DHT22;12042;52.136;5.584;2023-03-13T07:20:58;13.30;99.90
23723;DHT22;12042;52.136;5.584;2023-03-13T07:23:26;13.30;99.90
23723;DHT22;12042;52.136;5.584;2023-03-13T07:25:59;13.30;99.90
23723;DHT22;12042;52.136;5.584;2023-03-13T07:28:26;13.30;99.90
23723;DHT22;12042;52.136;5.584;2023-03-13T07:30:52;13.20;99.90
23723;DHT22;12042;52.136;5.584;2023-03-13T07:33:18;13.20;99.90
23723;DHT22;12042;52.136;5.584;2023-03-13T07:35:51;13.20;99.90
23723;DHT22;12042;52.136;5.584;2023-03-13T07:38:17;13.20;99.90
23723;DHT22;12042;52.136;5.584;2023-03-13T07:40:50;13.20;99.90
23723;DHT22;12042;52.136;5.584;2023-03-13T07:43:20;13.10;99.90
23723;DHT22;12042;52.136;5.584;2023-03-13T07:45:58;13.10;99.90
23723;DHT22;12042;52.136;5.584;2023-03-13T07:48:43;13.00;99.90
23723;DHT22;12042;52.136;5.584;2023-03-13T07:51:29;12.90;99.90
23723;DHT22;12042;52.136;5.584;2023-03-13T07:53:55;12.90;99.90
23723;DHT22;12042;52.136;5.584;2023-03-13T07:56:22;12.90;99.90
23723;DHT22;12042;52.136;5.584;2023-03-13T07:58:49;12.80;99.90
23723;DHT22;12042;52.136;5.584;2023-03-13T08:01:19;12.70;99.90
23723;DHT22;12042;52.136;5.584;2023-03-13T08:03:46;12.80;99.90
23723;DHT22;12042;52.136;5.584;2023-03-13T08:06:19;12.70;99.90
23723;DHT22;12042;52.136;5.584;2023-03-13T08:08:45;12.80;99.90
23723;DHT22;12042;52.136;5.584;2023-03-13T08:11:13;12.70;99.90
23723;DHT22;12042;52.136;5.584;2023-03-13T08:13:39;12.70;99.90
23723;DHT22;12042;52.136;5.584;2023-03-13T08:16:08;12.70;99.90
23723;DHT22;12042;52.136;5.584;2023-03-13T08:18:35;12.70;99.90
23723;DHT22;12042;52.136;5.584;2023-03-13T08:21:03;12.80;99.90
23723;DHT22;12042;52.136;5.584;2023-03-13T08:23:32;12.80;99.90
23723;DHT22;12042;52.136;5.584;2023-03-13T08:26:10;12.80;99.90
23723;DHT22;12042;52.136;5.584;2023-03-13T08:28:36;12.80;99.90
23723;DHT22;12042;52.136;5.584;2023-03-13T08:33:38;12.70;99.90
23723;DHT22;12042;52.136;5.584;2023-03-13T08:38:36;12.80;99.90
23723;DHT22;12042;52.136;5.584;2023-03-13T08:41:02;12.90;99.90
23723;DHT22;12042;52.136;5.584;2023-03-13T08:43:28;12.90;99.90
23723;DHT22;12042;52.136;5.584;2023-03-13T08:45:54;12.80;99.90
23723;DHT22;12042;52.136;5.584;2023-03-13T08:48:21;12.80;99.90
23723;DHT22;12042;52.136;5.584;2023-03-13T08:50:46;12.90;99.90
23723;DHT22;12042;52.136;5.584;2023-03-13T08:53:12;13.00;99.90
23723;DHT22;12042;52.136;5.584;2023-03-13T08:55:37;13.00;99.90
23723;DHT22;12042;52.136;5.584;2023-03-13T08:58:03;13.10;99.90
23723;DHT22;12042;52.136;5.584;2023-03-13T09:00:31;13.10;99.90
23723;DHT22;12042;52.136;5.584;2023-03-13T09:02:57;13.20;99.90
23723;DHT22;12042;52.136;5.584;2023-03-13T09:05:25;13.30;99.90
23723;DHT22;12042;52.136;5.584;2023-03-13T09:07:52;13.30;99.90
23723;DHT22;12042;52.136;5.584;2023-03-13T09:10:18;13.40;99.90
23723;DHT22;12042;52.136;5.584;2023-03-13T09:12:43;13.50;99.90
23723;DHT22;12042;52.136;5.584;2023-03-13T09:15:11;13.50;99.90
23723;DHT22;12042;52.136;5.584;2023-03-13T09:17:39;13.40;99.90
23723;DHT22;12042;52.136;5.584;2023-03-13T09:20:05;13.40;99.90
23723;DHT22;12042;52.136;5.584;2023-03-13T09:22:32;13.40;99.90
23723;DHT22;12042;52.136;5.584;2023-03-13T09:25:01;13.40;99.90
23723;DHT22;12042;52.136;5.584;2023-03-13T09:27:26;13.60;99.90
23723;DHT22;12042;52.136;5.584;2023-03-13T09:29:53;13.60;99.90
23723;DHT22;12042;52.136;5.584;2023-03-13T09:32:19;13.60;99.90
23723;DHT22;12042;52.136;5.584;2023-03-13T09:34:49;13.80;99.90
23723;DHT22;12042;52.136;5.584;2023-03-13T09:37:14;14.00;99.90
23723;DHT22;12042;52.136;5.584;2023-03-13T09:39:40;14.20;99.90
23723;DHT22;12042;52.136;5.584;2023-03-13T09:44:58;14.40;99.90
23723;DHT22;12042;52.136;5.584;2023-03-13T09:47:34;14.40;99.90
23723;DHT22;12042;52.136;5.584;2023-03-13T09:50:41;14.50;99.90
23723;DHT22;12042;52.136;5.584;2023-03-13T09:53:19;14.50;99.90
23723;DHT22;12042;52.136;5.584;2023-03-13T09:55:52;14.50;99.90
23723;DHT22;12042;52.136;5.584;2023-03-13T09:58:27;14.50;99.90
23723;DHT22;12042;52.136;5.584;2023-03-13T10:01:03;14.50;99.90
23723;DHT22;12042;52.136;5.584;2023-03-13T10:06:52;14.70;99.90
23723;DHT22;12042;52.136;5.584;2023-03-13T10:09:33;14.70;99.90
23723;DHT22;12042;52.136;5.584;2023-03-13T10:12:24;14.70;99.90
23723;DHT22;12042;52.136;5.584;2023-03-13T10:15:28;14.70;99.90
23723;DHT22;12042;52.136;5.584;2023-03-13T10:21:22;15.20;99.90
23723;DHT22;12042;52.136;5.584;2023-03-13T10:24:35;15.40;99.90
23723;DHT22;12042;52.136;5.584;2023-03-13T10:27:10;15.60;99.90
23723;DHT22;12042;52.136;5.584;2023-03-13T10:29:47;15.70;99.90
23723;DHT22;12042;52.136;5.584;2023-03-13T10:32:23;15.80;99.90
23723;DHT22;12042;52.136;5.584;2023-03-13T10:35:04;15.80;99.90
23723;DHT22;12042;52.136;5.584;2023-03-13T10:37:58;15.80;99.90
23723;DHT22;12042;52.136;5.584;2023-03-13T10:40:28;15.70;99.90
23723;DHT22;12042;52.136;5.584;2023-03-13T10:43:20;15.70;99.90
23723;DHT22;12042;52.136;5.584;2023-03-13T10:45:52;15.80;99.90
23723;DHT22;12042;52.136;5.584;2023-03-13T10:48:24;16.00;99.90
23723;DHT22;12042;52.136;5.584;2023-03-13T10:50:52;16.00;99.90
23723;DHT22;12042;52.136;5.584;2023-03-13T10:56:42;15.80;99.90
23723;DHT22;12042;52.136;5.584;2023-03-13T11:02:39;16.00;99.90
23723;DHT22;12042;52.136;5.584;2023-03-13T11:05:41;16.30;99.90
23723;DHT22;12042;52.136;5.584;2023-03-13T11:11:01;16.60;99.90
23723;DHT22;12042;52.136;5.584;2023-03-13T11:16:03;16.60;99.90
23723;DHT22;12042;52.136;5.584;2023-03-13T11:21:12;16.70;99.90
23723;DHT22;12042;52.136;5.584;2023-03-13T11:23:46;16.90;99.90
23723;DHT22;12042;52.136;5.584;2023-03-13T11:26:26;17.20;99.90
23723;DHT22;12042;52.136;5.584;2023-03-13T11:29:20;17.40;99.90
23723;DHT22;12042;52.136;5.584;2023-03-13T11:31:50;17.40;99.90
23723;DHT22;12042;52.136;5.584;2023-03-13T11:37:12;17.50;99.90
23723;DHT22;12042;52.136;5.584;2023-03-13T11:59:02;17.20;99.90
23723;DHT22;12042;52.136;5.584;2023-03-13T12:01:38;17.20;99.90
23723;DHT22;12042;52.136;5.584;2023-03-13T12:04:41;17.50;99.90
23723;DHT22;12042;52.136;5.584;2023-03-13T12:07:37;17.70;99.90
23723;DHT22;12042;52.136;5.584;2023-03-13T12:10:10;17.70;99.90
23723;DHT22;12042;52.136;5.584;2023-03-13T12:12:46;17.90;99.90
23723;DHT22;12042;52.136;5.584;2023-03-13T12:15:21;17.80;99.90
23723;DHT22;12042;52.136;5.584;2023-03-13T12:17:52;17.70;99.90
23723;DHT22;12042;52.136;5.584;2023-03-13T12:20:22;17.80;99.90
23723;DHT22;12042;52.136;5.584;2023-03-13T12:25:31;17.70;99.90
23723;DHT22;12042;52.136;5.584;2023-03-13T12:30:44;17.50;99.90
23723;DHT22;12042;52.136;5.584;2023-03-13T12:33:24;17.40;99.90
23723;DHT22;12042;52.136;5.584;2023-03-13T12:36:03;17.60;99.90
23723;DHT22;12042;52.136;5.584;2023-03-13T12:38:49;17.50;99.90
23723;DHT22;12042;52.136;5.584;2023-03-13T12:43:58;17.90;99.90
23723;DHT22;12042;52.136;5.584;2023-03-13T12:52:26;18.00;99.90
23723;DHT22;12042;52.136;5.584;2023-03-13T13:00:25;18.10;99.90
23723;DHT22;12042;52.136;5.584;2023-03-13T13:03:19;18.10;99.90
23723;DHT22;12042;52.136;5.584;2023-03-13T13:06:05;17.90;99.90
23723;DHT22;12042;52.136;5.584;2023-03-13T13:16:56;18.30;99.90
23723;DHT22;12042;52.136;5.584;2023-03-13T13:24:52;18.30;99.90
23723;DHT22;12042;52.136;5.584;2023-03-13T13:30:00;18.20;99.90
23723;DHT22;12042;52.136;5.584;2023-03-13T13:32:42;18.20;99.90
23723;DHT22;12042;52.136;5.584;2023-03-13T13:37:38;18.40;99.90
23723;DHT22;12042;52.136;5.584;2023-03-13T13:40:21;18.40;99.90
23723;DHT22;12042;52.136;5.584;2023-03-13T13:42:54;18.40;99.90
23723;DHT22;12042;52.136;5.584;2023-03-13T13:45:31;18.50;99.90
23723;DHT22;12042;52.136;5.584;2023-03-13T13:48:26;18.40;99.90
23723;DHT22;12042;52.136;5.584;2023-03-13T13:53:47;18.50;99.90
23723;DHT22;12042;52.136;5.584;2023-03-13T13:56:44;18.20;99.90
23723;DHT22;12042;52.136;5.584;2023-03-13T14:10:16;17.90;99.90
23723;DHT22;12042;52.136;5.584;2023-03-13T14:12:51;18.00;99.90
23723;DHT22;12042;52.136;5.584;2023-03-13T14:15:28;18.10;99.90
23723;DHT22;12042;52.136;5.584;2023-03-13T14:20:40;18.40;99.90
23723;DHT22;12042;52.136;5.584;2023-03-13T14:23:39;18.30;99.90
23723;DHT22;12042;52.136;5.584;2023-03-13T14:26:15;18.30;99.90
23723;DHT22;12042;52.136;5.584;2023-03-13T14:29:22;18.10;99.90
23723;DHT22;12042;52.136;5.584;2023-03-13T14:31:54;18.00;99.90
23723;DHT22;12042;52.136;5.584;2023-03-13T14:34:20;18.00;99.90
23723;DHT22;12042;52.136;5.584;2023-03-13T14:39:41;18.20;99.90
23723;DHT22;12042;52.136;5.584;2023-03-13T14:42:15;18.20;99.90
23723;DHT22;12042;52.136;5.584;2023-03-13T14:44:42;18.30;99.90
23723;DHT22;12042;52.136;5.584;2023-03-13T14:47:26;18.20;99.90
23723;DHT22;12042;52.136;5.584;2023-03-13T14:50:07;18.30;99.90
23723;DHT22;12042;52.136;5.584;2023-03-13T14:52:34;18.40;99.90
23723;DHT22;12042;52.136;5.584;2023-03-13T14:55:26;18.60;99.90
23723;DHT22;12042;52.136;5.584;2023-03-13T14:58:27;18.70;99.90
23723;DHT22;12042;52.136;5.584;2023-03-13T15:00:57;18.60;99.90
23723;DHT22;12042;52.136;5.584;2023-03-13T15:03:28;18.50;99.90
23723;DHT22;12042;52.136;5.584;2023-03-13T15:06:30;18.50;99.90
23723;DHT22;12042;52.136;5.584;2023-03-13T15:09:18;18.50;99.90
23723;DHT22;12042;52.136;5.584;2023-03-13T15:11:56;18.70;99.90
23723;DHT22;12042;52.136;5.584;2023-03-13T15:14:52;18.50;99.90
23723;DHT22;12042;52.136;5.584;2023-03-13T15:17:25;18.40;99.90
23723;DHT22;12042;52.136;5.584;2023-03-13T15:19:56;18.70;99.90
23723;DHT22;12042;52.136;5.584;2023-03-13T15:22:28;18.40;99.90
23723;DHT22;12042;52.136;5.584;2023-03-13T15:24:56;18.30;99.90
23723;DHT22;12042;52.136;5.584;2023-03-13T15:27:24;18.30;99.90
23723;DHT22;12042;52.136;5.584;2023-03-13T15:29:53;18.50;99.90
23723;DHT22;12042;52.136;5.584;2023-03-13T15:34:48;18.50;99.90
23723;DHT22;12042;52.136;5.584;2023-03-13T15:37:14;18.60;99.90
23723;DHT22;12042;52.136;5.584;2023-03-13T15:39:40;18.50;99.90
23723;DHT22;12042;52.136;5.584;2023-03-13T15:42:06;18.30;99.90
23723;DHT22;12042;52.136;5.584;2023-03-13T15:44:32;18.00;99.90
23723;DHT22;12042;52.136;5.584;2023-03-13T15:46:58;18.40;99.90
23723;DHT22;12042;52.136;5.584;2023-03-13T15:49:23;18.60;99.90
23723;DHT22;12042;52.136;5.584;2023-03-13T15:51:49;18.80;99.90
23723;DHT22;12042;52.136;5.584;2023-03-13T15:54:15;18.50;99.90
23723;DHT22;12042;52.136;5.584;2023-03-13T15:56:40;18.30;99.90
23723;DHT22;12042;52.136;5.584;2023-03-13T15:59:14;18.30;99.90
23723;DHT22;12042;52.136;5.584;2023-03-13T16:01:43;18.30;99.90
23723;DHT22;12042;52.136;5.584;2023-03-13T16:04:10;18.20;99.90
23723;DHT22;12042;52.136;5.584;2023-03-13T16:06:36;18.60;99.90
23723;DHT22;12042;52.136;5.584;2023-03-13T16:09:03;18.60;99.90
23723;DHT22;12042;52.136;5.584;2023-03-13T16:11:30;18.50;99.90
23723;DHT22;12042;52.136;5.584;2023-03-13T16:13:56;18.80;99.90
23723;DHT22;12042;52.136;5.584;2023-03-13T16:16:29;18.20;99.90
23723;DHT22;12042;52.136;5.584;2023-03-13T16:18:58;17.90;99.90
23723;DHT22;12042;52.136;5.584;2023-03-13T16:21:30;18.00;99.90
23723;DHT22;12042;52.136;5.584;2023-03-13T16:23:56;17.90;99.90
23723;DHT22;12042;52.136;5.584;2023-03-13T16:26:27;17.10;99.90
23723;DHT22;12042;52.136;5.584;2023-03-13T16:28:54;17.40;99.90
23723;DHT22;12042;52.136;5.584;2023-03-13T16:31:28;17.50;99.90
23723;DHT22;12042;52.136;5.584;2023-03-13T16:33:54;17.20;99.90
23723;DHT22;12042;52.136;5.584;2023-03-13T16:36:26;17.10;99.90
23723;DHT22;12042;52.136;5.584;2023-03-13T16:38:56;16.80;99.90
23723;DHT22;12042;52.136;5.584;2023-03-13T16:41:24;16.70;99.90
23723;DHT22;12042;52.136;5.584;2023-03-13T16:43:50;17.20;99.90
23723;DHT22;12042;52.136;5.584;2023-03-13T16:46:22;17.10;99.90
23723;DHT22;12042;52.136;5.584;2023-03-13T16:48:49;16.60;99.90
23723;DHT22;12042;52.136;5.584;2023-03-13T16:51:22;17.10;99.90
23723;DHT22;12042;52.136;5.584;2023-03-13T16:53:50;16.90;99.90
23723;DHT22;12042;52.136;5.584;2023-03-13T16:56:32;16.90;99.90
23723;DHT22;12042;52.136;5.584;2023-03-13T16:59:02;17.00;99.90
23723;DHT22;12042;52.136;5.584;2023-03-13T17:01:28;16.80;99.90
23723;DHT22;12042;52.136;5.584;2023-03-13T17:03:58;16.90;99.90
23723;DHT22;12042;52.136;5.584;2023-03-13T17:06:26;16.80;99.90
23723;DHT22;12042;52.136;5.584;2023-03-13T17:08:55;16.40;99.90
23723;DHT22;12042;52.136;5.584;2023-03-13T17:11:21;16.60;99.90
23723;DHT22;12042;52.136;5.584;2023-03-13T17:13:49;16.40;99.90
23723;DHT22;12042;52.136;5.584;2023-03-13T17:16:30;16.50;99.90
23723;DHT22;12042;52.136;5.584;2023-03-13T17:18:58;15.80;99.90
23723;DHT22;12042;52.136;5.584;2023-03-13T17:21:28;16.20;99.90
23723;DHT22;12042;52.136;5.584;2023-03-13T17:23:55;15.80;99.90
23723;DHT22;12042;52.136;5.584;2023-03-13T17:26:21;15.70;99.90
23723;DHT22;12042;52.136;5.584;2023-03-13T17:28:53;16.10;99.90
23723;DHT22;12042;52.136;5.584;2023-03-13T17:31:20;15.70;99.90
23723;DHT22;12042;52.136;5.584;2023-03-13T17:33:48;15.70;99.90
23723;DHT22;12042;52.136;5.584;2023-03-13T17:36:23;15.60;99.90
23723;DHT22;12042;52.136;5.584;2023-03-13T17:38:51;15.30;99.90
23723;DHT22;12042;52.136;5.584;2023-03-13T17:41:20;15.60;99.90
23723;DHT22;12042;52.136;5.584;2023-03-13T17:43:46;15.80;99.90
23723;DHT22;12042;52.136;5.584;2023-03-13T17:46:21;15.40;99.90
23723;DHT22;12042;52.136;5.584;2023-03-13T17:48:49;15.00;99.90
23723;DHT22;12042;52.136;5.584;2023-03-13T17:51:23;15.40;99.90
23723;DHT22;12042;52.136;5.584;2023-03-13T17:53:50;15.00;99.90
23723;DHT22;12042;52.136;5.584;2023-03-13T17:56:30;15.30;99.90
23723;DHT22;12042;52.136;5.584;2023-03-13T17:58:59;14.60;99.90
23723;DHT22;12042;52.136;5.584;2023-03-13T18:01:27;15.10;99.90
23723;DHT22;12042;52.136;5.584;2023-03-13T18:03:54;15.00;99.90
23723;DHT22;12042;52.136;5.584;2023-03-13T18:06:40;14.30;99.90
23723;DHT22;12042;52.136;5.584;2023-03-13T18:09:15;14.30;99.90
23723;DHT22;12042;52.136;5.584;2023-03-13T18:11:41;14.30;99.90
23723;DHT22;12042;52.136;5.584;2023-03-13T18:14:06;14.40;99.90
23723;DHT22;12042;52.136;5.584;2023-03-13T18:16:39;14.10;99.90
23723;DHT22;12042;52.136;5.584;2023-03-13T18:19:18;14.30;99.90
23723;DHT22;12042;52.136;5.584;2023-03-13T18:21:48;14.20;99.90
23723;DHT22;12042;52.136;5.584;2023-03-13T18:24:13;14.00;99.90
23723;DHT22;12042;52.136;5.584;2023-03-13T18:26:41;14.10;99.90
23723;DHT22;12042;52.136;5.584;2023-03-13T18:29:22;14.00;99.90
23723;DHT22;12042;52.136;5.584;2023-03-13T18:31:52;14.00;99.90
23723;DHT22;12042;52.136;5.584;2023-03-13T18:34:21;13.90;99.90
23723;DHT22;12042;52.136;5.584;2023-03-13T18:36:47;13.90;99.90
23723;DHT22;12042;52.136;5.584;2023-03-13T18:39:15;14.10;99.90
23723;DHT22;12042;52.136;5.584;2023-03-13T18:41:42;13.70;99.90
23723;DHT22;12042;52.136;5.584;2023-03-13T18:44:08;13.70;99.90
23723;DHT22;12042;52.136;5.584;2023-03-13T18:46:39;13.60;99.90
23723;DHT22;12042;52.136;5.584;2023-03-13T18:49:07;13.70;99.90
23723;DHT22;12042;52.136;5.584;2023-03-13T18:51:37;14.20;99.90
23723;DHT22;12042;52.136;5.584;2023-03-13T18:54:02;13.70;99.90
23723;DHT22;12042;52.136;5.584;2023-03-13T18:56:29;13.80;99.90
23723;DHT22;12042;52.136;5.584;2023-03-13T18:58:58;14.40;99.90
23723;DHT22;12042;52.136;5.584;2023-03-13T19:01:26;13.80;99.90
23723;DHT22;12042;52.136;5.584;2023-03-13T19:03:53;14.00;99.90
23723;DHT22;12042;52.136;5.584;2023-03-13T19:06:27;14.20;99.90
23723;DHT22;12042;52.136;5.584;2023-03-13T19:08:58;13.70;99.90
23723;DHT22;12042;52.136;5.584;2023-03-13T19:11:26;14.40;99.90
23723;DHT22;12042;52.136;5.584;2023-03-13T19:13:55;13.70;99.90
23723;DHT22;12042;52.136;5.584;2023-03-13T19:16:34;14.30;99.90
23723;DHT22;12042;52.136;5.584;2023-03-13T19:19:16;14.30;99.90
23723;DHT22;12042;52.136;5.584;2023-03-13T19:21:44;13.70;99.90
23723;DHT22;12042;52.136;5.584;2023-03-13T19:24:10;13.70;99.90
23723;DHT22;12042;52.136;5.584;2023-03-13T19:26:36;14.10;99.90
23723;DHT22;12042;52.136;5.584;2023-03-13T19:29:29;13.50;99.90
23723;DHT22;12042;52.136;5.584;2023-03-13T19:31:54;13.30;99.90
23723;DHT22;12042;52.136;5.584;2023-03-13T19:34:20;13.50;99.90
23723;DHT22;12042;52.136;5.584;2023-03-13T19:36:48;13.80;99.90
23723;DHT22;12042;52.136;5.584;2023-03-13T19:39:15;13.90;99.90
23723;DHT22;12042;52.136;5.584;2023-03-13T19:41:42;13.30;99.90
23723;DHT22;12042;52.136;5.584;2023-03-13T19:44:08;13.40;99.90
23723;DHT22;12042;52.136;5.584;2023-03-13T19:46:34;13.80;99.90
23723;DHT22;12042;52.136;5.584;2023-03-13T19:49:02;13.40;99.90
23723;DHT22;12042;52.136;5.584;2023-03-13T19:51:29;13.80;99.90
23723;DHT22;12042;52.136;5.584;2023-03-13T19:53:55;13.90;99.90
23723;DHT22;12042;52.136;5.584;2023-03-13T19:56:23;13.30;99.90
23723;DHT22;12042;52.136;5.584;2023-03-13T19:59:04;13.20;99.90
23723;DHT22;12042;52.136;5.584;2023-03-13T20:01:30;13.00;99.90
23723;DHT22;12042;52.136;5.584;2023-03-13T20:03:56;12.70;99.90
23723;DHT22;12042;52.136;5.584;2023-03-13T20:06:27;13.40;99.90
23723;DHT22;12042;52.136;5.584;2023-03-13T20:09:02;12.50;99.90
23723;DHT22;12042;52.136;5.584;2023-03-13T20:11:28;12.60;99.90
23723;DHT22;12042;52.136;5.584;2023-03-13T20:13:54;13.00;99.90
23723;DHT22;12042;52.136;5.584;2023-03-13T20:16:25;12.90;99.90
23723;DHT22;12042;52.136;5.584;2023-03-13T20:18:55;12.70;99.90
23723;DHT22;12042;52.136;5.584;2023-03-13T20:21:21;12.40;99.90
23723;DHT22;12042;52.136;5.584;2023-03-13T20:23:49;12.10;99.90
23723;DHT22;12042;52.136;5.584;2023-03-13T20:26:17;12.70;99.90
23723;DHT22;12042;52.136;5.584;2023-03-13T20:28:48;12.70;99.90
23723;DHT22;12042;52.136;5.584;2023-03-13T20:31:18;12.80;99.90
23723;DHT22;12042;52.136;5.584;2023-03-13T20:33:44;12.90;99.90
23723;DHT22;12042;52.136;5.584;2023-03-13T20:36:13;12.60;99.90
23723;DHT22;12042;52.136;5.584;2023-03-13T20:38:41;12.50;99.90
23723;DHT22;12042;52.136;5.584;2023-03-13T20:41:09;11.90;99.90
23723;DHT22;12042;52.136;5.584;2023-03-13T20:43:35;11.80;99.90
23723;DHT22;12042;52.136;5.584;2023-03-13T20:46:04;12.30;99.90
23723;DHT22;12042;52.136;5.584;2023-03-13T20:48:32;11.70;99.90
23723;DHT22;12042;52.136;5.584;2023-03-13T20:50:59;11.60;99.90
23723;DHT22;12042;52.136;5.584;2023-03-13T20:53:25;11.70;99.90
23723;DHT22;12042;52.136;5.584;2023-03-13T20:55:51;11.90;99.90
23723;DHT22;12042;52.136;5.584;2023-03-13T20:58:17;11.60;99.90
23723;DHT22;12042;52.136;5.584;2023-03-13T21:00:46;11.60;99.90
23723;DHT22;12042;52.136;5.584;2023-03-13T21:05:40;11.60;99.90
23723;DHT22;12042;52.136;5.584;2023-03-13T21:08:06;11.70;99.90
23723;DHT22;12042;52.136;5.584;2023-03-13T21:10:39;11.70;99.90
23723;DHT22;12042;52.136;5.584;2023-03-13T21:13:06;11.80;99.90
23723;DHT22;12042;52.136;5.584;2023-03-13T21:15:32;11.80;99.90
23723;DHT22;12042;52.136;5.584;2023-03-13T21:18:01;11.70;99.90
23723;DHT22;12042;52.136;5.584;2023-03-13T21:20:27;11.80;99.90
23723;DHT22;12042;52.136;5.584;2023-03-13T21:22:53;11.80;99.90
23723;DHT22;12042;52.136;5.584;2023-03-13T21:25:19;11.80;99.90
23723;DHT22;12042;52.136;5.584;2023-03-13T21:27:45;11.90;99.90
23723;DHT22;12042;52.136;5.584;2023-03-13T21:30:13;11.90;99.90
23723;DHT22;12042;52.136;5.584;2023-03-13T21:32:40;12.00;99.90
23723;DHT22;12042;52.136;5.584;2023-03-13T21:35:06;12.10;99.90
23723;DHT22;12042;52.136;5.584;2023-03-13T21:37:33;12.10;99.90
23723;DHT22;12042;52.136;5.584;2023-03-13T21:39:59;12.10;99.90
23723;DHT22;12042;52.136;5.584;2023-03-13T21:42:25;12.20;99.90
23723;DHT22;12042;52.136;5.584;2023-03-13T21:44:50;12.20;99.90
23723;DHT22;12042;52.136;5.584;2023-03-13T21:47:18;12.20;99.90
23723;DHT22;12042;52.136;5.584;2023-03-13T21:49:52;12.20;99.90
23723;DHT22;12042;52.136;5.584;2023-03-13T21:52:19;12.20;99.90
23723;DHT22;12042;52.136;5.584;2023-03-13T21:54:45;12.30;99.90
23723;DHT22;12042;52.136;5.584;2023-03-13T21:57:11;12.30;99.90
23723;DHT22;12042;52.136;5.584;2023-03-13T21:59:37;12.30;99.90
23723;DHT22;12042;52.136;5.584;2023-03-13T22:02:03;12.30;99.90
23723;DHT22;12042;52.136;5.584;2023-03-13T22:04:28;12.30;99.90
23723;DHT22;12042;52.136;5.584;2023-03-13T22:06:54;12.30;99.90
23723;DHT22;12042;52.136;5.584;2023-03-13T22:09:20;12.30;99.90
23723;DHT22;12042;52.136;5.584;2023-03-13T22:11:47;12.30;99.90
23723;DHT22;12042;52.136;5.584;2023-03-13T22:14:15;12.30;99.90
23723;DHT22;12042;52.136;5.584;2023-03-13T22:16:41;12.40;99.90
23723;DHT22;12042;52.136;5.584;2023-03-13T22:19:06;12.40;99.90
23723;DHT22;12042;52.136;5.584;2023-03-13T22:21:32;12.50;99.90
23723;DHT22;12042;52.136;5.584;2023-03-13T22:23:58;12.50;99.90
23723;DHT22;12042;52.136;5.584;2023-03-13T22:26:23;12.50;99.90
23723;DHT22;12042;52.136;5.584;2023-03-13T22:28:49;12.50;99.90
23723;DHT22;12042;52.136;5.584;2023-03-13T22:31:15;12.50;99.90
23723;DHT22;12042;52.136;5.584;2023-03-13T22:33:40;12.50;99.90
23723;DHT22;12042;52.136;5.584;2023-03-13T22:36:07;12.50;99.90
23723;DHT22;12042;52.136;5.584;2023-03-13T22:38:33;12.50;99.90
23723;DHT22;12042;52.136;5.584;2023-03-13T22:41:07;12.50;99.90
23723;DHT22;12042;52.136;5.584;2023-03-13T22:43:33;12.40;99.90
23723;DHT22;12042;52.136;5.584;2023-03-13T22:45:59;12.40;99.90
23723;DHT22;12042;52.136;5.584;2023-03-13T22:48:26;12.40;99.90
23723;DHT22;12042;52.136;5.584;2023-03-13T22:51:18;12.50;99.90
23723;DHT22;12042;52.136;5.584;2023-03-13T22:53:43;12.50;99.90
23723;DHT22;12042;52.136;5.584;2023-03-13T22:56:10;12.50;99.90
23723;DHT22;12042;52.136;5.584;2023-03-13T22:58:37;12.40;99.90
23723;DHT22;12042;52.136;5.584;2023-03-13T23:01:07;12.30;99.90
23723;DHT22;12042;52.136;5.584;2023-03-13T23:03:32;12.30;99.90
23723;DHT22;12042;52.136;5.584;2023-03-13T23:05:59;12.20;99.90
23723;DHT22;12042;52.136;5.584;2023-03-13T23:08:25;12.20;99.90
23723;DHT22;12042;52.136;5.584;2023-03-13T23:10:50;12.20;99.90
23723;DHT22;12042;52.136;5.584;2023-03-13T23:13:16;12.20;99.90
23723;DHT22;12042;52.136;5.584;2023-03-13T23:15:44;12.20;99.90
23723;DHT22;12042;52.136;5.584;2023-03-13T23:18:09;12.30;99.90
23723;DHT22;12042;52.136;5.584;2023-03-13T23:20:36;12.30;99.90
23723;DHT22;12042;52.136;5.584;2023-03-13T23:23:04;12.30;99.90
23723;DHT22;12042;52.136;5.584;2023-03-13T23:25:30;12.30;99.90
23723;DHT22;12042;52.136;5.584;2023-03-13T23:27:55;12.40;99.90
23723;DHT22;12042;52.136;5.584;2023-03-13T23:30:21;12.40;99.90
23723;DHT22;12042;52.136;5.584;2023-03-13T23:32:49;12.40;99.90
23723;DHT22;12042;52.136;5.584;2023-03-13T23:35:15;12.40;99.90
23723;DHT22;12042;52.136;5.584;2023-03-13T23:37:41;12.40;99.90
23723;DHT22;12042;52.136;5.584;2023-03-13T23:40:09;12.50;99.90
23723;DHT22;12042;52.136;5.584;2023-03-13T23:42:36;12.50;99.90
23723;DHT22;12042;52.136;5.584;2023-03-13T23:45:02;12.50;99.90
23723;DHT22;12042;52.136;5.584;2023-03-13T23:47:32;12.50;99.90
23723;DHT22;12042;52.136;5.584;2023-03-13T23:50:02;12.50;99.90
23723;DHT22;12042;52.136;5.584;2023-03-13T23:52:31;12.50;99.90
23723;DHT22;12042;52.136;5.584;2023-03-13T23:54:58;12.50;99.90
23723;DHT22;12042;52.136;5.584;2023-03-13T23:57:28;12.60;99.90
23723;DHT22;12042;52.136;5.584;2023-03-13T23:59:56;12.60;99.90
